Time;durP1;ratioP1;P1;durP2;ratioP2;P2;SDS_P1;SDS_P2;PMS_P1;PMS_P2;Temp;Humidity;BMP_temperature;BMP_pressure;BME280_temperature;BME280_humidity;BME280_pressure;Samples;Min_cycle;Max_cycle;Signal;HPM_P1;HPM_P2
2022/02/18 00:00:19;;;;;;;3.70;1.40;;;;;;;4.16;76.62;98260.44;107466;1276;108869;-78
2022/02/18 00:03:07;;;;;;;3.80;1.50;;;;;;;4.19;76.81;98274.56;105846;1276;137702;-78
2022/02/18 00:05:40;;;;;;;4.00;1.60;;;;;;;4.19;76.64;98281.61;106033;1276;98018;-78
2022/02/18 00:08:12;;;;;;;2.90;1.40;;;;;;;4.18;76.59;98280.46;107360;1275;137638;-79
2022/02/18 00:10:44;;;;;;;5.90;1.40;;;;;;;4.15;76.69;98285.55;107457;1276;112429;-79
2022/02/18 00:13:20;;;;;;;4.10;1.40;;;;;;;4.14;76.68;98293.02;107366;1276;138622;-79
2022/02/18 00:15:52;;;;;;;3.80;1.40;;;;;;;4.12;76.86;98296.48;107164;1276;108162;-79
2022/02/18 00:18:24;;;;;;;4.40;1.50;;;;;;;4.12;76.62;98308.02;105947;1276;97824;-78
2022/02/18 00:20:58;;;;;;;2.70;1.20;;;;;;;4.13;76.48;98314.52;105865;1275;137804;-78
2022/02/18 00:23:30;;;;;;;2.10;1.20;;;;;;;4.15;76.32;98317.91;105820;1277;110631;-77
2022/02/18 00:26:02;;;;;;;4.10;1.40;;;;;;;4.16;76.41;98314.27;105819;1276;138124;-78
2022/02/18 00:28:34;;;;;;;4.40;1.40;;;;;;;4.14;76.24;98322.95;105900;1276;108929;-77
2022/02/18 00:31:07;;;;;;;4.80;1.70;;;;;;;4.11;76.24;98327.48;105795;1276;97828;-78
2022/02/18 00:33:39;;;;;;;4.30;1.40;;;;;;;4.09;76.54;98328.60;105840;1276;137025;-77
2022/02/18 00:36:11;;;;;;;3.80;1.30;;;;;;;4.08;76.29;98336.20;105837;1276;112816;-78
2022/02/18 00:38:43;;;;;;;3.10;1.40;;;;;;;4.08;76.04;98331.73;105801;1276;138078;-77
2022/02/18 00:41:15;;;;;;;4.80;1.30;;;;;;;4.09;76.18;98338.91;105899;1276;108612;-77
2022/02/18 00:43:50;;;;;;;6.60;1.50;;;;;;;4.10;76.13;98339.21;105836;1276;138634;-78
2022/02/18 00:46:23;;;;;;;3.50;1.40;;;;;;;4.12;76.06;98341.91;107013;1276;97934;-78
2022/02/18 00:48:55;;;;;;;3.80;1.50;;;;;;;4.12;75.73;98346.04;105903;1276;112835;-78
2022/02/18 00:51:26;;;;;;;5.60;1.80;;;;;;;4.11;75.73;98352.43;105776;1276;137621;-78
2022/02/18 00:53:59;;;;;;;3.50;1.40;;;;;;;4.08;75.68;98357.20;105889;1276;108333;-78
2022/02/18 00:56:32;;;;;;;6.50;1.50;;;;;;;4.04;75.70;98363.55;105871;1276;137948;-78
2022/02/18 00:59:04;;;;;;;3.80;1.20;;;;;;;4.02;75.93;98364.48;105864;1276;97840;-78
2022/02/18 01:01:36;;;;;;;3.50;1.50;;;;;;;4.00;75.95;98362.82;105852;1276;138451;-78
2022/02/18 01:04:08;;;;;;;6.70;1.70;;;;;;;4.02;76.03;98365.33;105931;1276;108839;-78
2022/02/18 01:06:44;;;;;;;4.40;1.60;;;;;;;4.04;75.81;98364.22;107403;1276;107839;-78
2022/02/18 01:09:16;;;;;;;7.50;1.40;;;;;;;4.07;76.03;98368.94;107314;1276;137663;-78
2022/02/18 01:11:48;;;;;;;7.50;1.90;;;;;;;4.07;75.78;98358.60;106479;1276;97841;-78
2022/02/18 01:14:21;;;;;;;8.40;1.90;;;;;;;4.07;75.56;98374.08;105768;1276;139073;-77
2022/02/18 01:16:55;;;;;;;5.00;1.90;;;;;;;4.07;75.66;98370.30;107434;1276;108916;-79
2022/02/18 01:19:28;;;;;;;6.70;1.90;;;;;;;4.06;75.42;98376.51;107077;1276;138579;-79
2022/02/18 01:22:01;;;;;;;5.20;1.80;;;;;;;4.06;75.67;98371.54;105940;1276;97856;-78
2022/02/18 01:24:33;;;;;;;7.50;2.00;;;;;;;4.05;75.86;98383.44;105862;1276;97727;-78
2022/02/18 01:27:06;;;;;;;5.90;1.40;;;;;;;4.06;76.16;98378.43;105732;1276;137986;-78
2022/02/18 01:29:40;;;;;;;6.40;2.00;;;;;;;4.05;76.17;98382.58;107476;1275;107665;-79
2022/02/18 01:32:13;;;;;;;8.90;2.00;;;;;;;4.05;76.22;98378.63;107321;1276;139229;-78
2022/02/18 01:34:45;;;;;;;4.40;1.90;;;;;;;4.02;75.87;98386.98;107117;1276;98267;-78
2022/02/18 01:37:20;;;;;;;11.10;1.60;;;;;;;4.00;76.09;98388.79;105750;1276;139275;-77
2022/02/18 01:39:52;;;;;;;7.60;1.90;;;;;;;3.98;75.95;98400.89;106979;1276;112768;-78
2022/02/18 01:42:24;;;;;;;7.90;1.90;;;;;;;3.96;75.86;98401.17;107266;1276;108854;-78
2022/02/18 01:44:56;;;;;;;8.30;1.90;;;;;;;3.94;75.77;98397.40;107313;1276;139428;-78
2022/02/18 01:47:28;;;;;;;5.90;2.10;;;;;;;3.94;75.79;98403.60;107297;1276;96011;-78
2022/02/18 01:50:00;;;;;;;6.00;1.70;;;;;;;3.93;75.86;98400.88;107181;1276;138348;-77
2022/02/18 01:52:34;;;;;;;7.90;1.60;;;;;;;3.95;75.77;98405.14;106283;1276;112037;-78
2022/02/18 01:55:11;;;;;;;6.10;1.80;;;;;;;3.96;75.58;98395.65;107382;1276;108940;-78
2022/02/18 01:57:47;;;;;;;10.60;1.90;;;;;;;3.98;75.51;98406.09;107354;1276;137172;-78
2022/02/18 02:00:21;;;;;;;8.30;2.20;;;;;;;3.98;75.50;98407.09;105977;1276;97846;-78
2022/02/18 02:02:57;;;;;;;7.50;2.20;;;;;;;3.97;75.45;98409.55;107209;1276;137811;-78
2022/02/18 02:05:29;;;;;;;10.00;2.10;;;;;;;3.94;75.12;98407.21;107416;1276;112477;-78
2022/02/18 02:08:01;;;;;;;5.90;1.60;;;;;;;3.93;75.05;98406.19;106280;1276;138556;-78
2022/02/18 02:10:35;;;;;;;5.90;1.80;;;;;;;3.93;75.02;98410.35;105851;1276;108380;-77
2022/02/18 02:13:31;;;;;;;5.50;1.80;;;;;;;3.92;74.92;98408.48;107292;1276;97566;-78
2022/02/18 02:16:06;;;;;;;7.80;2.20;;;;;;;3.97;74.79;98401.29;107250;1276;96136;-79
2022/02/18 02:18:38;;;;;;;5.90;1.70;;;;;;;3.98;74.78;98401.59;107323;1275;112933;-78
2022/02/18 02:21:12;;;;;;;9.20;2.50;;;;;;;4.01;74.52;98405.27;106257;1276;137993;-77
2022/02/18 02:23:47;;;;;;;6.50;2.00;;;;;;;4.02;74.48;98405.05;107027;1276;109045;-78
2022/02/18 02:26:22;;;;;;;6.80;1.80;;;;;;;4.03;73.93;98410.71;106881;1276;138635;-78
2022/02/18 02:28:54;;;;;;;8.20;1.90;;;;;;;4.02;74.12;98406.75;107253;1276;95979;-78
2022/02/18 02:31:27;;;;;;;6.80;2.40;;;;;;;4.03;74.03;98423.94;106710;1276;112547;-78
2022/02/18 02:33:59;;;;;;;7.30;2.40;;;;;;;4.02;73.83;98426.02;106061;1276;138147;-77
2022/02/18 02:36:33;;;;;;;11.20;2.20;;;;;;;4.04;74.36;98429.73;105594;1276;165837;-78
2022/02/18 02:39:06;;;;;;;7.60;2.00;;;;;;;4.05;74.47;98430.25;106045;1276;138296;-78
2022/02/18 02:41:38;;;;;;;6.70;1.90;;;;;;;4.04;74.62;98447.96;106051;1276;97857;-77
2022/02/18 02:44:12;;;;;;;6.90;2.60;;;;;;;4.01;74.82;98447.05;106259;1276;137560;-78
2022/02/18 02:46:44;;;;;;;8.60;1.90;;;;;;;3.96;75.08;98450.84;107230;1276;110107;-78
2022/02/18 02:49:26;;;;;;;8.60;2.30;;;;;;;3.91;75.31;98443.25;107276;1276;109087;-79
2022/02/18 02:51:58;;;;;;;8.30;2.10;;;;;;;3.85;75.32;98459.63;106869;1276;139465;-79
2022/02/18 02:54:30;;;;;;;8.20;2.00;;;;;;;3.83;75.77;98458.16;106243;1276;97947;-78
2022/02/18 02:57:12;;;;;;;9.50;2.00;;;;;;;3.80;75.82;98469.27;106246;1276;138184;-78
2022/02/18 02:59:50;;;;;;;6.40;1.80;;;;;;;3.77;75.92;98469.52;106619;1276;108750;-78
2022/02/18 03:02:22;;;;;;;10.50;1.90;;;;;;;3.74;76.17;98477.18;105663;1279;137846;-77
2022/02/18 03:04:55;;;;;;;9.60;2.10;;;;;;;3.70;76.47;98476.10;105909;1274;97858;-77
2022/02/18 03:07:27;;;;;;;10.20;2.90;;;;;;;3.65;76.20;98481.10;106397;1276;97868;-78
2022/02/18 03:10:06;;;;;;;8.80;2.10;;;;;;;3.61;76.53;98485.17;106339;1279;137253;-78
2022/02/18 03:12:38;;;;;;;8.40;1.80;;;;;;;3.58;76.63;98492.98;107436;1276;108966;-79
2022/02/18 03:15:14;;;;;;;6.80;2.00;;;;;;;3.56;76.91;98491.66;107144;1276;138308;-79
2022/02/18 03:17:48;;;;;;;9.50;2.20;;;;;;;3.55;76.95;98496.85;106544;1277;97846;-79
2022/02/18 03:20:23;;;;;;;10.00;2.40;;;;;;;3.58;76.92;98496.08;105809;1276;138067;-78
2022/02/18 03:22:55;;;;;;;9.70;2.50;;;;;;;3.58;76.97;98496.41;107379;1276;109963;-79
2022/02/18 03:25:27;;;;;;;9.90;2.00;;;;;;;3.57;77.04;98496.61;107302;1276;108976;-79
2022/02/18 03:27:59;;;;;;;9.60;1.80;;;;;;;3.56;76.96;98494.95;107142;1278;137461;-79
2022/02/18 03:30:33;;;;;;;7.50;1.70;;;;;;;3.53;76.62;98494.36;107286;1276;96932;-79
2022/02/18 03:33:06;;;;;;;10.20;2.40;;;;;;;3.52;76.65;98504.70;107241;1276;137984;-79
2022/02/18 03:35:37;;;;;;;6.80;2.10;;;;;;;3.52;76.66;98495.41;107244;1276;112180;-79
2022/02/18 03:38:10;;;;;;;6.60;2.00;;;;;;;3.54;76.45;98496.73;107282;1276;138998;-79
2022/02/18 03:40:46;;;;;;;10.00;2.30;;;;;;;3.57;76.27;98490.77;107295;1276;108892;-78
2022/02/18 03:43:21;;;;;;;8.70;2.30;;;;;;;3.61;76.14;98498.56;107428;1276;96028;-78
2022/02/18 03:46:19;;;;;;;9.10;2.00;;;;;;;3.67;75.92;98505.79;107274;1276;137297;-78
2022/02/18 03:48:54;;;;;;;10.20;2.00;;;;;;;3.71;75.97;98505.98;107345;1276;112591;-79
2022/02/18 03:51:26;;;;;;;14.40;2.90;;;;;;;3.74;75.35;98503.48;107174;1276;138471;-78
2022/02/18 03:53:58;;;;;;;15.90;2.30;;;;;;;3.75;74.70;98510.30;107244;1276;107770;-78
2022/02/18 03:56:30;;;;;;;9.60;1.90;;;;;;;3.75;74.76;98520.78;107234;1276;137602;-77
2022/02/18 03:59:02;;;;;;;9.00;2.30;;;;;;;3.76;74.66;98526.78;107382;1276;96168;-78
2022/02/18 04:01:34;;;;;;;7.00;1.90;;;;;;;3.79;74.41;98524.13;105936;1278;112974;-77
2022/02/18 04:04:06;;;;;;;9.50;2.00;;;;;;;3.82;74.55;98536.75;107196;1276;138286;-78
2022/02/18 04:06:50;;;;;;;12.00;2.60;;;;;;;3.87;74.20;98541.22;107095;1276;108916;-78
2022/02/18 04:09:45;;;;;;;9.00;2.10;;;;;;;3.89;73.90;98543.72;107333;1276;138315;-78
2022/02/18 04:12:23;;;;;;;12.90;2.20;;;;;;;3.91;73.51;98546.40;107357;1276;96159;-78
2022/02/18 04:15:03;;;;;;;7.40;2.00;;;;;;;3.92;73.44;98559.79;107163;1276;138058;-78
2022/02/18 04:17:36;;;;;;;10.60;2.20;;;;;;;3.93;72.91;98565.07;107267;1276;107859;-78
2022/02/18 04:20:14;;;;;;;9.10;2.10;;;;;;;3.93;72.90;98576.79;107151;1276;139685;-78
2022/02/18 04:23:07;;;;;;;7.20;2.10;;;;;;;3.92;72.78;98583.15;107251;1276;97673;-78
2022/02/18 04:25:40;;;;;;;10.00;1.60;;;;;;;3.95;72.92;98602.02;107238;1276;96119;-78
2022/02/18 04:28:13;;;;;;;9.00;2.10;;;;;;;3.98;72.91;98606.23;106838;1276;138425;-77
2022/02/18 04:30:46;;;;;;;8.40;2.10;;;;;;;4.02;72.51;98609.52;105954;1276;109258;-77
2022/02/18 04:33:17;;;;;;;5.90;1.50;;;;;;;4.05;72.68;98619.06;105735;1276;137745;-79
2022/02/18 04:35:50;;;;;;;10.70;1.90;;;;;;;4.06;72.55;98618.51;105747;1277;97846;-76
2022/02/18 04:38:21;;;;;;;10.80;2.20;;;;;;;4.06;72.18;98623.31;105826;1276;138425;-79
2022/02/18 04:40:53;;;;;;;10.30;1.80;;;;;;;4.07;72.03;98626.20;106034;1276;112435;-79
2022/02/18 04:43:25;;;;;;;10.20;2.20;;;;;;;4.07;72.29;98633.60;106040;1276;107152;-77
2022/02/18 04:45:57;;;;;;;11.90;1.80;;;;;;;4.06;72.05;98634.85;107016;1276;137595;-77
2022/02/18 04:48:29;;;;;;;6.70;1.70;;;;;;;4.05;72.09;98644.02;107444;1276;96327;-77
2022/02/18 04:51:01;;;;;;;7.10;2.10;;;;;;;4.04;72.03;98646.09;107303;1276;139714;-77
2022/02/18 04:53:40;;;;;;;9.20;1.80;;;;;;;4.07;71.83;98648.40;107467;1276;112495;-77
2022/02/18 04:56:12;;;;;;;10.40;1.90;;;;;;;4.09;71.33;98655.40;107327;1276;138339;-77
2022/02/18 04:58:44;;;;;;;9.70;1.80;;;;;;;4.11;71.43;98653.76;107412;1276;110102;-78
2022/02/18 05:01:17;;;;;;;8.50;2.00;;;;;;;4.13;71.00;98674.19;107286;1276;95938;-79
2022/02/18 05:03:50;;;;;;;9.80;1.80;;;;;;;4.13;70.97;98676.95;106318;1276;137207;-79
2022/02/18 05:06:22;;;;;;;8.40;1.80;;;;;;;4.13;70.88;98682.10;107390;1276;112423;-79
2022/02/18 05:08:54;;;;;;;10.90;2.20;;;;;;;4.14;70.59;98679.34;107406;1276;137911;-79
2022/02/18 05:11:26;;;;;;;10.30;2.30;;;;;;;4.13;70.57;98683.98;106453;1276;107625;-77
2022/02/18 05:13:58;;;;;;;8.30;2.00;;;;;;;4.12;70.61;98685.72;105826;1276;137799;-76
2022/02/18 05:16:30;;;;;;;6.40;1.60;;;;;;;4.11;70.69;98693.66;107403;1276;96262;-79
2022/02/18 05:19:02;;;;;;;6.90;1.60;;;;;;;4.13;70.55;98703.08;107249;1276;111570;-78
2022/02/18 05:21:34;;;;;;;10.40;1.80;;;;;;;4.14;70.58;98705.64;106153;1277;137839;-78
2022/02/18 05:24:07;;;;;;;8.20;1.70;;;;;;;4.18;70.48;98710.16;107336;1277;108743;-80
2022/02/18 05:26:40;;;;;;;5.90;1.60;;;;;;;4.20;70.35;98719.03;106459;1276;137964;-78
2022/02/18 05:29:12;;;;;;;8.10;2.10;;;;;;;4.22;70.12;98722.76;107472;1276;95959;-78
2022/02/18 05:31:45;;;;;;;7.90;2.00;;;;;;;4.23;70.09;98726.15;107473;1276;112506;-78
2022/02/18 05:34:17;;;;;;;15.00;2.80;;;;;;;4.23;70.22;98727.38;107345;1277;137730;-78
2022/02/18 05:36:50;;;;;;;8.40;2.00;;;;;;;4.21;70.01;98729.67;106525;1277;110953;-78
2022/02/18 05:39:22;;;;;;;7.50;1.90;;;;;;;4.18;69.88;98741.13;105797;1277;137746;-78
2022/02/18 05:41:54;;;;;;;10.30;2.10;;;;;;;4.17;70.11;98739.95;106942;1276;96359;-79
2022/02/18 05:44:31;;;;;;;8.50;2.00;;;;;;;4.13;70.06;98745.23;107325;1276;138280;-79
2022/02/18 05:47:04;;;;;;;7.20;2.40;;;;;;;4.12;69.94;98746.27;107207;1278;106907;-78
2022/02/18 05:49:36;;;;;;;6.10;1.80;;;;;;;4.12;69.82;98746.63;107403;1276;109371;-78
2022/02/18 05:52:09;;;;;;;6.20;2.10;;;;;;;4.13;69.84;98753.31;106756;1277;139941;-77
2022/02/18 05:54:41;;;;;;;8.10;2.20;;;;;;;4.14;69.72;98757.77;106358;1277;97726;-77
2022/02/18 05:57:13;;;;;;;6.50;2.10;;;;;;;4.16;69.77;98759.23;107018;1276;137606;-77
2022/02/18 05:59:45;;;;;;;9.20;2.40;;;;;;;4.18;69.99;98768.96;107403;1276;108882;-77
2022/02/18 06:02:17;;;;;;;8.50;2.50;;;;;;;4.18;69.55;98767.63;106403;1276;137735;-78
2022/02/18 06:04:51;;;;;;;11.00;2.60;;;;;;;4.15;69.70;98777.34;106820;1277;97767;-77
2022/02/18 06:07:23;;;;;;;8.30;2.60;;;;;;;4.12;69.59;98779.47;107384;1277;95869;-77
2022/02/18 06:09:55;;;;;;;9.30;2.90;;;;;;;4.09;69.87;98784.55;107291;1277;137388;-77
2022/02/18 06:12:28;;;;;;;14.00;2.50;;;;;;;4.09;69.88;98793.49;107428;1276;107755;-77
2022/02/18 06:15:00;;;;;;;9.30;1.90;;;;;;;4.09;70.06;98786.77;107224;1277;138116;-77
2022/02/18 06:17:32;;;;;;;7.00;2.40;;;;;;;4.10;69.81;98791.05;107335;1277;96199;-77
2022/02/18 06:20:05;;;;;;;5.00;1.90;;;;;;;4.12;70.04;98805.63;107311;1276;138443;-77
2022/02/18 06:22:37;;;;;;;6.60;1.80;;;;;;;4.15;70.06;98807.80;107414;1276;112513;-77
2022/02/18 06:25:12;;;;;;;7.40;2.20;;;;;;;4.18;69.90;98808.57;107460;1276;107695;-78
2022/02/18 06:27:45;;;;;;;10.20;2.40;;;;;;;4.19;69.70;98813.00;107273;1277;137791;-78
2022/02/18 06:30:17;;;;;;;6.90;2.00;;;;;;;4.20;69.63;98819.83;107229;1277;95743;-78
2022/02/18 06:32:49;;;;;;;8.60;2.20;;;;;;;4.21;69.41;98822.56;107258;1277;137797;-78
2022/02/18 06:35:24;;;;;;;7.30;2.10;;;;;;;4.22;69.55;98824.93;107425;1277;112487;-77
2022/02/18 06:37:56;;;;;;;10.30;2.20;;;;;;;4.23;69.33;98826.11;107447;1277;108891;-78
2022/02/18 06:40:29;;;;;;;10.20;2.70;;;;;;;4.23;69.61;98829.21;106628;1277;137355;-79
2022/02/18 06:43:01;;;;;;;13.00;2.60;;;;;;;4.24;69.40;98837.61;105800;1277;97872;-78
2022/02/18 06:45:35;;;;;;;8.80;2.30;;;;;;;4.22;69.30;98833.36;105873;1276;137570;-77
2022/02/18 06:48:09;;;;;;;8.70;2.20;;;;;;;4.21;69.36;98838.57;107147;1276;112366;-78
2022/02/18 06:50:41;;;;;;;11.90;2.60;;;;;;;4.21;69.69;98846.32;105689;1277;138373;-77
2022/02/18 06:53:13;;;;;;;7.00;2.10;;;;;;;4.23;69.46;98849.70;105994;1277;110843;-78
2022/02/18 06:55:46;;;;;;;8.10;2.20;;;;;;;4.26;69.27;98853.21;105811;1277;97854;-78
2022/02/18 06:58:18;;;;;;;8.20;2.10;;;;;;;4.29;69.38;98858.28;107156;1277;137906;-79
2022/02/18 07:00:51;;;;;;;10.40;2.40;;;;;;;4.30;69.19;98863.95;106847;1276;112221;-79
2022/02/18 07:03:23;;;;;;;10.50;2.70;;;;;;;4.30;69.30;98868.43;107316;1276;137769;-78
2022/02/18 07:05:57;;;;;;;9.90;2.80;;;;;;;4.32;69.33;98876.30;107232;1276;107640;-78
2022/02/18 07:08:29;;;;;;;15.40;3.00;;;;;;;4.29;69.07;98871.20;105831;1277;137652;-78
2022/02/18 07:11:01;;;;;;;9.40;2.30;;;;;;;4.27;69.10;98868.33;107241;1276;96381;-80
2022/02/18 07:13:34;;;;;;;13.80;2.60;;;;;;;4.23;69.06;98874.80;107525;1276;111450;-78
2022/02/18 07:16:08;;;;;;;11.90;2.80;;;;;;;4.20;69.28;98871.62;106848;1276;138481;-78
2022/02/18 07:18:40;;;;;;;9.70;2.50;;;;;;;4.19;69.42;98879.90;106700;1276;110210;-79
2022/02/18 07:21:13;;;;;;;14.30;2.80;;;;;;;4.20;69.61;98879.02;105805;1277;138022;-79
2022/02/18 07:23:45;;;;;;;11.20;2.60;;;;;;;4.24;69.61;98881.15;107259;1276;97703;-78
2022/02/18 07:26:17;;;;;;;11.50;2.60;;;;;;;4.27;69.20;98886.20;107360;1276;138275;-78
2022/02/18 07:28:49;;;;;;;15.50;3.30;;;;;;;4.32;69.24;98888.34;107418;1276;105929;-78
2022/02/18 07:31:22;;;;;;;12.70;3.30;;;;;;;4.33;68.79;98886.59;106950;1276;108884;-78
2022/02/18 07:33:54;;;;;;;16.00;2.70;;;;;;;4.36;69.18;98896.65;107331;1276;137679;-79
2022/02/18 07:36:26;;;;;;;10.80;2.90;;;;;;;4.39;68.70;98892.25;106953;1276;97961;-78
2022/02/18 07:38:58;;;;;;;11.70;2.60;;;;;;;4.40;68.66;98894.62;107331;1276;137500;-79
2022/02/18 07:41:30;;;;;;;12.30;3.20;;;;;;;4.40;68.56;98902.02;107486;1276;109433;-79
2022/02/18 07:44:02;;;;;;;9.10;2.70;;;;;;;4.40;68.59;98899.98;105980;1278;108942;-78
2022/02/18 07:46:34;;;;;;;12.90;3.30;;;;;;;4.39;68.46;98903.60;106322;1276;137612;-79
2022/02/18 07:49:06;;;;;;;9.10;2.60;;;;;;;4.39;68.38;98906.37;107537;1276;96177;-79
2022/02/18 07:51:38;;;;;;;8.10;2.40;;;;;;;4.40;68.37;98912.36;107328;1276;138291;-79
2022/02/18 07:54:10;;;;;;;9.50;2.70;;;;;;;4.41;68.19;98907.34;106449;1276;108207;-78
2022/02/18 07:56:44;;;;;;;11.00;2.60;;;;;;;4.45;67.99;98913.59;105653;1277;137858;-79
2022/02/18 07:59:16;;;;;;;8.50;2.80;;;;;;;4.52;68.15;98920.98;105807;1277;97837;-78
2022/02/18 08:01:48;;;;;;;9.40;2.70;;;;;;;4.57;67.65;98923.06;105808;1276;97851;-78
2022/02/18 08:04:20;;;;;;;12.40;2.60;;;;;;;4.58;67.81;98927.17;105728;1276;137368;-78
2022/02/18 08:06:52;;;;;;;14.10;2.70;;;;;;;4.59;67.54;98928.67;105740;1276;109245;-78
2022/02/18 08:09:24;;;;;;;15.40;4.50;;;;;;;4.62;67.35;98934.10;105693;1276;137669;-78
2022/02/18 08:11:56;;;;;;;12.70;2.90;;;;;;;4.64;67.79;98941.59;105875;1276;97855;-77
2022/02/18 08:14:28;;;;;;;15.60;3.20;;;;;;;4.65;67.60;98945.54;105759;1276;137495;-77
2022/02/18 08:17:00;;;;;;;12.10;3.10;;;;;;;4.63;67.25;98943.02;105984;1276;113510;-78
2022/02/18 08:19:32;;;;;;;15.40;3.00;;;;;;;4.61;67.39;98948.93;105854;1276;108853;-78
2022/02/18 08:22:05;;;;;;;20.70;3.50;;;;;;;4.60;67.12;98946.05;105646;1276;140021;-74
2022/02/18 08:24:41;;;;;;;12.20;3.00;;;;;;;4.60;67.15;98951.02;105866;1276;97863;-72
2022/02/18 08:27:13;;;;;;;12.40;3.10;;;;;;;4.60;67.30;98953.95;105650;1276;137887;-72
2022/02/18 08:29:45;;;;;;;10.30;2.40;;;;;;;4.63;67.31;98950.59;105838;1276;111529;-72
2022/02/18 08:32:17;;;;;;;10.10;2.80;;;;;;;4.67;67.14;98953.58;105735;1276;140792;-72
2022/02/18 08:34:50;;;;;;;10.10;2.70;;;;;;;4.73;66.95;98957.02;105749;1276;109020;-72
2022/02/18 08:37:21;;;;;;;9.90;3.00;;;;;;;4.79;66.60;98957.69;105680;1276;98501;-72
2022/02/18 08:39:53;;;;;;;10.90;2.90;;;;;;;4.80;66.42;98963.16;105722;1276;137214;-77
2022/02/18 08:42:25;;;;;;;16.60;4.20;;;;;;;4.79;66.58;98975.60;105816;1276;112691;-74
2022/02/18 08:44:57;;;;;;;12.40;3.30;;;;;;;4.81;66.78;98977.95;105773;1276;137651;-71
2022/02/18 08:47:29;;;;;;;14.70;3.10;;;;;;;4.82;66.96;98973.95;105739;1276;107884;-73
2022/02/18 08:50:01;;;;;;;13.20;3.00;;;;;;;4.83;66.95;98972.89;105826;1276;98338;-71
2022/02/18 08:52:33;;;;;;;15.20;2.90;;;;;;;4.83;66.85;98980.11;105630;1276;137813;-73
2022/02/18 08:55:12;;;;;;;13.50;2.90;;;;;;;4.83;66.80;98980.32;105811;1276;112518;-73
2022/02/18 08:57:47;;;;;;;12.80;2.80;;;;;;;4.82;66.58;98992.58;107337;1276;137741;-74
2022/02/18 09:00:20;;;;;;;13.60;3.20;;;;;;;4.79;66.73;98999.88;107407;1276;107779;-73
2022/02/18 09:02:52;;;;;;;14.30;2.90;;;;;;;4.78;66.61;99006.28;107242;1276;139265;-73
2022/02/18 09:05:26;;;;;;;11.10;2.90;;;;;;;4.79;66.66;99009.34;107469;1276;96591;-72
2022/02/18 09:07:58;;;;;;;9.80;3.00;;;;;;;4.81;66.36;99001.88;107457;1276;111439;-72
2022/02/18 09:10:29;;;;;;;7.60;2.30;;;;;;;4.85;66.80;99018.16;105702;1276;138727;-72
2022/02/18 09:13:01;;;;;;;13.70;3.20;;;;;;;4.90;66.68;99010.62;105751;1276;108790;-72
2022/02/18 09:15:34;;;;;;;11.00;3.00;;;;;;;4.95;66.27;99017.36;105695;1276;137692;-72
2022/02/18 09:18:26;;;;;;;10.90;3.00;;;;;;;4.96;66.22;99025.75;105777;1276;97739;-73
2022/02/18 09:20:58;;;;;;;12.50;3.40;;;;;;;4.99;66.29;99027.40;105702;1276;137462;-73
2022/02/18 09:23:50;;;;;;;12.60;3.20;;;;;;;5.02;66.37;99031.09;105805;1277;107937;-73
2022/02/18 09:26:25;;;;;;;11.20;3.30;;;;;;;5.02;66.16;99033.33;105816;1276;142415;-71
2022/02/18 09:29:01;;;;;;;10.90;2.90;;;;;;;4.99;65.66;99033.23;105932;1276;97805;-70
2022/02/18 09:31:33;;;;;;;9.00;3.00;;;;;;;4.98;65.58;99046.02;105961;1276;97842;-73
2022/02/18 09:34:05;;;;;;;10.00;2.90;;;;;;;4.94;65.47;99041.32;105684;1276;136270;-73
2022/02/18 09:36:36;;;;;;;12.50;3.30;;;;;;;4.94;65.71;99053.40;105899;1276;107663;-73
2022/02/18 09:39:09;;;;;;;12.00;3.20;;;;;;;4.97;65.64;99050.70;105667;1276;136385;-71
2022/02/18 09:41:42;;;;;;;12.30;2.90;;;;;;;5.01;65.45;99053.34;105791;1276;97906;-72
2022/02/18 09:44:15;;;;;;;11.80;3.20;;;;;;;5.00;65.10;99056.11;105727;1276;137821;-73
2022/02/18 09:46:49;;;;;;;11.30;2.70;;;;;;;4.99;65.59;99069.25;105823;1276;112471;-72
2022/02/18 09:49:21;;;;;;;11.20;3.20;;;;;;;4.99;65.40;99066.50;105817;1276;107795;-74
2022/02/18 09:51:53;;;;;;;10.20;3.80;;;;;;;4.99;65.41;99077.00;105597;1276;137637;-73
2022/02/18 09:54:26;;;;;;;13.00;3.30;;;;;;;4.98;65.55;99075.49;105729;1276;97961;-73
2022/02/18 09:57:00;;;;;;;9.70;3.00;;;;;;;4.94;65.34;99072.48;105626;1276;137548;-73
2022/02/18 09:59:33;;;;;;;12.40;3.10;;;;;;;4.92;65.42;99076.71;105645;1276;112570;-72
2022/02/18 10:02:06;;;;;;;9.70;2.90;;;;;;;4.91;65.32;99078.45;105731;1276;107952;-72
2022/02/18 10:04:38;;;;;;;13.40;3.00;;;;;;;4.94;65.30;99076.80;105620;1276;138113;-71
2022/02/18 10:07:10;;;;;;;10.30;2.90;;;;;;;4.98;64.75;99067.05;105627;1276;97877;-73
2022/02/18 10:09:44;;;;;;;13.10;3.40;;;;;;;5.02;64.98;99080.36;105698;1276;137619;-74
2022/02/18 10:12:17;;;;;;;13.90;3.60;;;;;;;5.08;65.31;99087.80;105768;1275;113693;-74
2022/02/18 10:14:56;;;;;;;15.90;3.90;;;;;;;5.10;64.89;99081.34;105730;1276;138255;-73
2022/02/18 10:17:39;;;;;;;11.20;3.90;;;;;;;5.13;64.92;99102.61;105695;1276;108748;-73
2022/02/18 10:20:18;;;;;;;11.50;3.30;;;;;;;5.14;65.06;99105.52;105696;1276;97939;-72
2022/02/18 10:23:02;;;;;;;15.00;4.00;;;;;;;5.14;65.30;99111.02;105671;1276;137162;-73
2022/02/18 10:25:35;;;;;;;13.50;3.30;;;;;;;5.21;65.34;99102.91;105736;1276;111430;-74
2022/02/18 10:28:09;;;;;;;9.50;3.80;;;;;;;5.29;65.45;99107.84;105618;1276;137669;-73
2022/02/18 10:30:43;;;;;;;14.50;3.70;;;;;;;5.35;65.13;99116.30;105647;1276;107877;-73
2022/02/18 10:33:17;;;;;;;16.00;4.00;;;;;;;5.37;65.02;99118.65;107105;1276;139097;-73
2022/02/18 10:35:57;;;;;;;17.40;3.90;;;;;;;5.44;64.80;99115.52;107366;1276;97576;-73
2022/02/18 10:38:35;;;;;;;15.70;4.20;;;;;;;5.52;64.58;99113.20;107315;1276;112439;-73
2022/02/18 10:41:24;;;;;;;15.40;3.70;;;;;;;5.59;64.50;99121.96;107149;1276;138640;-73
2022/02/18 10:44:02;;;;;;;21.60;3.80;;;;;;;5.65;64.33;99127.98;107301;1276;107740;-73
2022/02/18 10:46:55;;;;;;;16.80;4.00;;;;;;;5.71;64.17;99125.40;107204;1275;136326;-73
2022/02/18 10:49:32;;;;;;;21.00;4.00;;;;;;;5.74;64.17;99127.89;107439;1276;96138;-73
2022/02/18 10:52:13;;;;;;;13.90;3.80;;;;;;;5.74;63.63;99125.65;107193;1276;138265;-73
2022/02/18 10:54:47;;;;;;;15.50;3.80;;;;;;;5.72;63.61;99133.27;107433;1276;108949;-73
2022/02/18 10:57:27;;;;;;;15.70;3.80;;;;;;;5.68;63.64;99138.23;107321;1276;139184;-73
2022/02/18 11:00:11;;;;;;;15.90;4.10;;;;;;;5.65;63.59;99140.25;106406;1276;97865;-73
2022/02/18 11:02:50;;;;;;;19.30;5.40;;;;;;;5.63;63.90;99140.48;107397;1276;96016;-73
2022/02/18 11:05:25;;;;;;;17.20;3.90;;;;;;;5.64;63.76;99135.27;107348;1276;138044;-73
2022/02/18 11:07:59;;;;;;;17.20;4.30;;;;;;;5.63;63.30;99134.45;106993;1276;108976;-73
2022/02/18 11:10:34;;;;;;;15.10;4.20;;;;;;;5.60;63.59;99130.56;105748;1276;139230;-73
2022/02/18 11:13:07;;;;;;;14.60;3.90;;;;;;;5.57;63.35;99133.77;105832;1276;97847;-73
2022/02/18 11:15:42;;;;;;;13.80;4.00;;;;;;;5.54;63.64;99136.06;105800;1276;137511;-73
2022/02/18 11:18:14;;;;;;;17.10;4.70;;;;;;;5.52;63.64;99135.45;105807;1276;112347;-73
2022/02/18 11:20:47;;;;;;;14.00;4.30;;;;;;;5.49;63.69;99133.63;105886;1276;106709;-72
2022/02/18 11:23:21;;;;;;;19.10;4.60;;;;;;;5.49;63.65;99134.34;105772;1274;138348;-73
2022/02/18 11:25:53;;;;;;;25.60;6.10;;;;;;;5.52;63.53;99135.11;105772;1276;98165;-75
2022/02/18 11:28:26;;;;;;;17.40;4.90;;;;;;;5.52;63.45;99132.85;105731;1276;137573;-74
2022/02/18 11:31:01;;;;;;;13.30;4.00;;;;;;;5.52;63.10;99130.27;105691;1276;112498;-74
2022/02/18 11:33:53;;;;;;;12.80;4.00;;;;;;;5.56;63.06;99130.52;105702;1276;137882;-74
2022/02/18 11:36:46;;;;;;;13.70;3.70;;;;;;;5.62;62.91;99133.45;105845;1276;107889;-74
2022/02/18 11:39:49;;;;;;;16.30;3.70;;;;;;;5.70;62.79;99129.73;105649;1276;138237;-75
2022/02/18 11:42:28;;;;;;;14.80;3.70;;;;;;;5.77;62.43;99130.58;105800;1276;97904;-73
2022/02/18 11:45:00;;;;;;;13.60;3.70;;;;;;;5.78;62.25;99133.47;105807;1276;110423;-73
2022/02/18 11:47:37;;;;;;;11.10;3.20;;;;;;;5.93;61.97;99128.52;105731;1276;138744;-72
2022/02/18 11:50:11;;;;;;;;;;;;;;;6.24;61.72;99119.79;105847;1276;108872;-73
2022/02/18 11:52:46;;;;;;;13.80;3.50;;;;;;;6.63;61.69;99110.73;107249;1276;124629;-72
2022/02/18 11:55:33;;;;;;;10.30;3.20;;;;;;;7.01;61.24;99110.92;106374;1276;97856;-72